Map

Track Data

SID SEASON NUMBER BASIN SUBBASIN NAME ISO_TIME NATURE LAT LON WMO_WIND WMO_PRES WMO_AGENCY TRACK_TYPE DIST2LAND LANDFALL IFLAG USA_AGENCY USA_ATCF_ID USA_LAT USA_LON USA_RECORD USA_STATUS USA_WIND USA_PRES USA_SSHS USA_R34_NE USA_R34_SE USA_R34_SW USA_R34_NW USA_R50_NE USA_R50_SE USA_R50_SW USA_R50_NW USA_R64_NE USA_R64_SE USA_R64_SW USA_R64_NW USA_POCI USA_ROCI USA_RMW USA_EYE TOKYO_LAT TOKYO_LON TOKYO_GRADE TOKYO_WIND TOKYO_PRES TOKYO_R50_DIR TOKYO_R50_LONG TOKYO_R50_SHORT TOKYO_R30_DIR TOKYO_R30_LONG TOKYO_R30_SHORT TOKYO_LAND CMA_LAT CMA_LON CMA_CAT CMA_WIND CMA_PRES HKO_LAT HKO_LON HKO_CAT HKO_WIND HKO_PRES NEWDELHI_LAT NEWDELHI_LON NEWDELHI_GRADE NEWDELHI_WIND NEWDELHI_PRES NEWDELHI_CI NEWDELHI_DP NEWDELHI_POCI REUNION_LAT REUNION_LON REUNION_TYPE REUNION_WIND REUNION_PRES REUNION_TNUM REUNION_CI REUNION_RMW REUNION_R34_NE REUNION_R34_SE REUNION_R34_SW REUNION_R34_NW REUNION_R50_NE REUNION_R50_SE REUNION_R50_SW REUNION_R50_NW REUNION_R64_NE REUNION_R64_SE REUNION_R64_SW REUNION_R64_NW BOM_LAT BOM_LON BOM_TYPE BOM_WIND BOM_PRES BOM_TNUM BOM_CI BOM_RMW BOM_R34_NE BOM_R34_SE BOM_R34_SW BOM_R34_NW BOM_R50_NE BOM_R50_SE BOM_R50_SW BOM_R50_NW BOM_R64_NE BOM_R64_SE BOM_R64_SW BOM_R64_NW BOM_ROCI BOM_POCI BOM_EYE BOM_POS_METHOD BOM_PRES_METHOD NADI_LAT NADI_LON NADI_CAT NADI_WIND NADI_PRES WELLINGTON_LAT WELLINGTON_LON WELLINGTON_WIND WELLINGTON_PRES DS824_LAT DS824_LON DS824_STAGE DS824_WIND DS824_PRES TD9636_LAT TD9636_LON TD9636_STAGE TD9636_WIND TD9636_PRES TD9635_LAT TD9635_LON TD9635_WIND TD9635_PRES TD9635_ROCI NEUMANN_LAT NEUMANN_LON NEUMANN_CLASS NEUMANN_WIND NEUMANN_PRES MLC_LAT MLC_LON MLC_CLASS MLC_WIND MLC_PRES USA_GUST BOM_GUST BOM_GUST_PER REUNION_GUST REUNION_GUST_PER USA_SEAHGT USA_SEARAD_NE USA_SEARAD_SE USA_SEARAD_SW USA_SEARAD_NW STORM_SPEED STORM_DIR
1900277N15087 1900 32 NI BB NOT_NAMED 1900-10-04 00:00:00 TS 15.1000 87.0000 main 472 464 _________O____ -1 15.1000 87.0000 TC 30 2 327
1900277N15087 1900 32 NI BB NOT_NAMED 1900-10-04 03:00:00 TS 15.1667 86.9600 main 464 448 _________PO___ -1 15.2000 86.9400 TC 30 15.1000 87.0000 1 2 339
1900277N15087 1900 32 NI BB NOT_NAMED 1900-10-04 06:00:00 TS 15.2688 86.9250 main 448 440 _________OP___ -1 15.3000 86.9000 TC 30 15.2219 86.9626 1 2 345
1900277N15087 1900 32 NI BB NOT_NAMED 1900-10-04 09:00:00 TS 15.3721 86.9086 main 440 432 _________PP___ -1 15.4000 86.8925 TC 30 15.3350 86.9302 1 2 354
1900277N15087 1900 32 NI BB NOT_NAMED 1900-10-04 12:00:00 TS 15.4653 86.9038 main 432 432 _________OP___ -1 15.5000 86.9000 TC 30 15.4306 86.9076 1 2 0
1900277N15087 1900 32 NI BB NOT_NAMED 1900-10-04 15:00:00 TS 15.5500 86.9000 main 424 424 _________PO___ -1 15.6000 86.9000 TC 30 15.5000 86.9000 1 2 9
1900277N15087 1900 32 NI BB NOT_NAMED 1900-10-04 18:00:00 TS 15.6216 86.9044 main 424 416 _________OP___ -1 15.7000 86.9000 TC 30 15.5431 86.9089 1 1 0
1900277N15087 1900 32 NI BB NOT_NAMED 1900-10-04 21:00:00 TS 15.6712 86.9185 main 416 408 _________PP___ -1 15.7475 86.9149 TC 30 15.5950 86.9222 1 2 0
1900277N15087 1900 32 NI BB NOT_NAMED 1900-10-05 00:00:00 TS 15.7997 86.9122 main 408 385 _________OP___ -1 15.9000 86.9000 TC 30 15.6994 86.9244 1 4 352
1900277N15087 1900 32 NI BB NOT_NAMED 1900-10-05 03:00:00 TS 16.0988 86.8575 main 385 346 _________PO___ -1 16.2975 86.8151 TC 30 15.9000 86.9000 1 7 349
1900277N15087 1900 32 NI BB NOT_NAMED 1900-10-05 06:00:00 TS 16.5206 86.7704 main 346 307 _________OP___ -1 16.8000 86.7000 TC 30 16.2413 86.8409 1 9 349
1900277N15087 1900 32 NI BB NOT_NAMED 1900-10-05 09:00:00 TS 16.9613 86.6761 main 299 263 _________PP___ -1 17.2425 86.5999 TC 30 16.6800 86.7523 1 9 348
1900277N15087 1900 32 NI BB NOT_NAMED 1900-10-05 12:00:00 TS 17.4394 86.5688 main 263 222 _________OP___ -1 17.7000 86.5000 TC 30 17.1788 86.6376 1 10 348
1900277N15087 1900 32 NI BB NOT_NAMED 1900-10-05 15:00:00 TS 17.9462 86.4611 main 222 164 _________PO___ -1 18.1924 86.4223 TC 30 17.7000 86.5000 1 11 347
1900277N15087 1900 32 NI BB NOT_NAMED 1900-10-05 18:00:00 TS 18.4733 86.3215 main 154 94 _________OP___ -1 18.7000 86.3000 TC 30 18.2466 86.3431 1 11 343
1900277N15087 1900 32 NI BB NOT_NAMED 1900-10-05 21:00:00 TS 19.0251 86.1119 main 94 35 _________PP___ -1 19.2526 86.0579 TC 30 18.7975 86.1659 1 11 338
1900277N15087 1900 32 NI BB NOT_NAMED 1900-10-06 00:00:00 TS 19.4999 85.8903 main 35 0 _________OP___ -1 19.7000 85.8000 TC 30 19.2997 85.9806 1 9 334
1900277N15087 1900 32 NI BB NOT_NAMED 1900-10-06 03:00:00 TS 19.8050 85.7174 main 0 0 _________PO___ -1 19.9099 85.6347 TC 30 19.7000 85.8000 1 6 328
1900277N15087 1900 32 NI BB NOT_NAMED 1900-10-06 06:00:00 TS 19.9684 85.5731 main 0 0 _________OP___ -1 20.0000 85.5000 TC 30 19.9367 85.6462 1 4 316
1900277N15087 1900 32 NI BB NOT_NAMED 1900-10-06 09:00:00 TS 20.0886 85.4246 main 0 0 _________PP___ -1 20.1075 85.3500 TC 30 20.0698 85.4992 1 3 306
1900277N15087 1900 32 NI BB NOT_NAMED 1900-10-06 12:00:00 TS 20.1715 85.2763 main 0 0 _________OP___ -1 20.2000 85.2000 TC 30 20.1430 85.3526 1 3 300
1900277N15087 1900 32 NI BB NOT_NAMED 1900-10-06 15:00:00 TS 20.2500 85.1287 main 0 0 _________PO___ -1 20.3000 85.0575 TC 30 20.2000 85.2000 1 3 304
1900277N15087 1900 32 NI BB NOT_NAMED 1900-10-06 18:00:00 TS 20.3575 84.9823 main 0 0 _________OP___ -1 20.4000 84.9000 TC 30 20.3150 85.0646 1 4 307
1900277N15087 1900 32 NI BB NOT_NAMED 1900-10-06 21:00:00 TS 20.4647 84.8237 main 0 0 _________PP___ -1 20.5074 84.7300 TC 30 20.4220 84.9173 1 4 301
1900277N15087 1900 32 NI BB NOT_NAMED 1900-10-07 00:00:00 TS 20.5590 84.6182 main 0 0 _________OP___ -1 20.6000 84.5000 TC 30 20.5180 84.7364 1 5 290
1900277N15087 1900 32 NI BB NOT_NAMED 1900-10-07 03:00:00 TS 20.6287 84.3400 main 0 0 _________PO___ -1 20.6575 84.1800 TC 30 20.6000 84.5000 1 6 281
1900277N15087 1900 32 NI BB NOT_NAMED 1900-10-07 06:00:00 TS 20.6722 83.9870 main 0 0 _________OP___ -1 20.7000 83.8000 TC 30 20.6444 84.1740 1 7 276
1900277N15087 1900 32 NI BB NOT_NAMED 1900-10-07 09:00:00 TS 20.7065 83.5971 main 0 0 _________PP___ -1 20.7350 83.3999 TC 30 20.6780 83.7944 1 7 277
1900277N15087 1900 32 NI BB NOT_NAMED 1900-10-07 12:00:00 TS 20.7613 83.1963 main 0 0 _________OP___ -1 20.8000 83.0000 TC 30 20.7225 83.3926 1 7 282
1900277N15087 1900 32 NI BB NOT_NAMED 1900-10-07 15:00:00 TS 20.8637 82.8175 main 0 0 _________PO___ -1 20.9274 82.6350 TC 30 20.8000 83.0000 1 7 289
1900277N15087 1900 32 NI BB NOT_NAMED 1900-10-07 18:00:00 TS 21.0014 82.4441 main 0 0 _________OP___ -1 21.1000 82.3000 TC 30 20.9027 82.5882 1 7 293
1900277N15087 1900 32 NI BB NOT_NAMED 1900-10-07 21:00:00 TS 21.1502 82.0781 main 0 0 _________PP___ -1 21.2550 81.9550 TC 30 21.0454 82.2012 1 7 301
1900277N15087 1900 32 NI BB NOT_NAMED 1900-10-08 00:00:00 TS 21.3701 81.7942 main 0 0 _________OP___ -1 21.5000 81.7000 TC 30 21.2402 81.8885 1 7 323
1900277N15087 1900 32 NI BB NOT_NAMED 1900-10-08 03:00:00 TS 21.7137 81.6301 main 0 0 _________PO___ -1 21.9273 81.5602 TC 30 21.5000 81.7000 1 8 348
1900277N15087 1900 32 NI BB NOT_NAMED 1900-10-08 06:00:00 TS 22.1354 81.6132 main 0 0 _________OP___ -1 22.4000 81.6000 TC 30 21.8708 81.6263 1 8 8
1900277N15087 1900 32 NI BB NOT_NAMED 1900-10-08 09:00:00 TS 22.5466 81.7484 main 0 0 _________PP___ -1 22.7948 81.8097 TC 30 22.2984 81.6871 1 9 27
1900277N15087 1900 32 NI BB NOT_NAMED 1900-10-08 12:00:00 TS 22.9134 82.0397 main 0 0 _________OP___ -1 23.1000 82.2000 TC 30 22.7269 81.8794 1 9 46
1900277N15087 1900 32 NI BB NOT_NAMED 1900-10-08 15:00:00 TS 23.1863 82.4564 main 0 0 _________PO___ -1 23.2726 82.7128 TC 30 23.1000 82.2000 1 10 62
1900277N15087 1900 32 NI BB NOT_NAMED 1900-10-08 18:00:00 TS 23.3832 83.0040 main 0 0 _________OP___ -1 23.4000 83.3000 TC 30 23.3664 82.7080 1 11 69
1900277N15087 1900 32 NI BB NOT_NAMED 1900-10-08 21:00:00 TS 23.5906 83.6229 main 0 0 _________PP___ -1 23.6153 83.9246 TC 30 23.5659 83.3212 1 11 71
1900277N15087 1900 32 NI BB NOT_NAMED 1900-10-09 00:00:00 TS 23.7535 84.1620 main 0 0 _________OP___ -1 23.8000 84.4000 TC 30 23.7070 83.9239 1 8 72
1900277N15087 1900 32 NI BB NOT_NAMED 1900-10-09 03:00:00 TS 23.8398 84.4626 main 0 0 _________PO___ -1 23.8797 84.5253 TC 30 23.8000 84.4000 1 4 70
1900277N15087 1900 32 NI BB NOT_NAMED 1900-10-09 06:00:00 TS 23.8834 84.5412 main 0 0 _________OP___ -1 23.9000 84.5000 TC 30 23.8669 84.5825 1 1 63
1900277N15087 1900 32 NI BB NOT_NAMED 1900-10-09 09:00:00 TS 23.8968 84.5855 main 0 0 _________PP___ -1 23.9000 84.5425 TC 30 23.8936 84.6285 1 1 74
1900277N15087 1900 32 NI BB NOT_NAMED 1900-10-09 12:00:00 TS 23.8993 84.6051 main 0 0 _________OP___ -1 23.9000 84.6000 TC 30 23.8986 84.6102 1 1 66
1900277N15087 1900 32 NI BB NOT_NAMED 1900-10-09 15:00:00 TS 23.9250 84.6425 main 0 0 _________PO___ -1 23.9500 84.6850 TC 30 23.9000 84.6000 1 1 65
1900277N15087 1900 32 NI BB NOT_NAMED 1900-10-09 18:00:00 TS 23.9499 84.7169 main 0 0 _________OP___ -1 24.0000 84.8000 TC 30 23.9124 84.6547 1 2 77
1900277N15087 1900 32 NI BB NOT_NAMED 1900-10-09 21:00:00 TS 23.9664 84.8388 main 0 0 _________PP___ -1 24.0125 84.9425 TC 30 23.9357 84.7696 1 2 84
1900277N15087 1900 32 NI BB NOT_NAMED 1900-10-10 00:00:00 TS 23.9774 84.9831 main 0 0 _________OP___ -1 24.0000 85.1000 TC 30 23.9661 84.9247 1 2 82
1900277N15087 1900 32 NI BB NOT_NAMED 1900-10-10 03:00:00 NR 24.0000 85.1000 main 0 __________O___ -1 TC 24.0000 85.1000 1 2 78

About IBTrACS Database

This database is a web-friendly format of International Best Track Archive for Climate Stewardship (IBTrACS), a global best track data archive curated by NOAA dating back to 1842.

Updated: 2021-10-08